Terminal Aerodrome Forecast
Issued by NWS

Home | Current Version | Previous Version | Text Only | Print | Product List | Glossary On
Versions: 1 2 3 4 5 6 7 8 9 10 11 12
000
FTUS45 KVEF 222320
TAFDAG
TAF
KDAG 222320Z 2300/2324 25017G25KT P6SM VCSH FEW040 SCT070 BKN090
      TEMPO 2300/2302 -SHRA SCT040 BKN070
     FM230300 24019KT P6SM SCT100
     FM231500 28014KT P6SM SCT100
     FM232300 26015G25KT P6SM FEW100=

USA.gov is the U.S. government's official web portal to all federal, state and local government web resources and services.